sensor_id;sensor_type;location;lat;lon;timestamp;pressure;altitude;pressure_sealevel;temperature;humidity
19457;BME280;9867;48.094;11.478;2023-02-12T00:00:50;97015.50;;;3.50;100.00
19457;BME280;9867;48.094;11.478;2023-02-12T00:03:17;97017.63;;;3.43;100.00
19457;BME280;9867;48.094;11.478;2023-02-12T00:05:44;97022.63;;;3.32;100.00
19457;BME280;9867;48.094;11.478;2023-02-12T00:08:10;97007.88;;;3.50;100.00
19457;BME280;9867;48.094;11.478;2023-02-12T00:10:39;97011.53;;;3.46;100.00
19457;BME280;9867;48.094;11.478;2023-02-12T00:13:07;96953.63;;;3.03;100.00
19457;BME280;9867;48.094;11.478;2023-02-12T00:15:37;97019.41;;;3.30;100.00
19457;BME280;9867;48.094;11.478;2023-02-12T00:18:06;97027.47;;;3.48;100.00
19457;BME280;9867;48.094;11.478;2023-02-12T00:20:33;97024.47;;;3.67;100.00
19457;BME280;9867;48.094;11.478;2023-02-12T00:23:00;97016.53;;;3.71;100.00
19457;BME280;9867;48.094;11.478;2023-02-12T00:25:27;97008.53;;;3.65;100.00
19457;BME280;9867;48.094;11.478;2023-02-12T00:27:53;97014.81;;;3.72;100.00
19457;BME280;9867;48.094;11.478;2023-02-12T00:30:20;97014.19;;;3.68;100.00
19457;BME280;9867;48.094;11.478;2023-02-12T00:32:46;97014.91;;;3.70;100.00
19457;BME280;9867;48.094;11.478;2023-02-12T00:35:13;97025.53;;;3.52;100.00
19457;BME280;9867;48.094;11.478;2023-02-12T00:37:39;97022.22;;;3.62;100.00
19457;BME280;9867;48.094;11.478;2023-02-12T00:40:07;97023.00;;;3.99;100.00
19457;BME280;9867;48.094;11.478;2023-02-12T00:42:34;97024.16;;;3.95;100.00
19457;BME280;9867;48.094;11.478;2023-02-12T00:45:00;97018.09;;;3.85;100.00
19457;BME280;9867;48.094;11.478;2023-02-12T00:47:29;97014.34;;;3.78;100.00
19457;BME280;9867;48.094;11.478;2023-02-12T00:49:56;97008.59;;;3.76;100.00
19457;BME280;9867;48.094;11.478;2023-02-12T00:52:22;96994.53;;;3.59;100.00
19457;BME280;9867;48.094;11.478;2023-02-12T00:54:49;97000.31;;;3.61;100.00
19457;BME280;9867;48.094;11.478;2023-02-12T00:57:16;96998.09;;;3.57;100.00
19457;BME280;9867;48.094;11.478;2023-02-12T00:59:42;97011.75;;;3.67;100.00
19457;BME280;9867;48.094;11.478;2023-02-12T01:02:09;97020.50;;;3.63;100.00
19457;BME280;9867;48.094;11.478;2023-02-12T01:04:35;97012.28;;;3.59;100.00
19457;BME280;9867;48.094;11.478;2023-02-12T01:07:02;97022.09;;;3.53;100.00
19457;BME280;9867;48.094;11.478;2023-02-12T01:09:28;97018.88;;;3.62;100.00
19457;BME280;9867;48.094;11.478;2023-02-12T01:11:54;97020.47;;;3.52;100.00
19457;BME280;9867;48.094;11.478;2023-02-12T01:14:21;97013.97;;;3.48;100.00
19457;BME280;9867;48.094;11.478;2023-02-12T01:16:48;97018.19;;;3.60;100.00
19457;BME280;9867;48.094;11.478;2023-02-12T01:19:14;97013.41;;;3.55;100.00
19457;BME280;9867;48.094;11.478;2023-02-12T01:21:41;96997.84;;;3.49;100.00
19457;BME280;9867;48.094;11.478;2023-02-12T01:24:08;97011.81;;;3.54;100.00
19457;BME280;9867;48.094;11.478;2023-02-12T01:26:35;97007.66;;;3.53;100.00
19457;BME280;9867;48.094;11.478;2023-02-12T01:29:05;96999.13;;;3.54;100.00
19457;BME280;9867;48.094;11.478;2023-02-12T01:31:35;97004.69;;;3.59;100.00
19457;BME280;9867;48.094;11.478;2023-02-12T01:34:04;97003.13;;;3.46;100.00
19457;BME280;9867;48.094;11.478;2023-02-12T01:36:32;97018.94;;;3.49;100.00
19457;BME280;9867;48.094;11.478;2023-02-12T01:38:58;97024.97;;;3.59;100.00
19457;BME280;9867;48.094;11.478;2023-02-12T01:41:29;97024.81;;;3.50;100.00
19457;BME280;9867;48.094;11.478;2023-02-12T01:44:11;97018.59;;;3.30;100.00
19457;BME280;9867;48.094;11.478;2023-02-12T01:46:39;97027.41;;;3.24;100.00
19457;BME280;9867;48.094;11.478;2023-02-12T01:49:09;97005.59;;;3.22;100.00
19457;BME280;9867;48.094;11.478;2023-02-12T01:51:36;97018.94;;;3.49;100.00
19457;BME280;9867;48.094;11.478;2023-02-12T01:54:05;97023.72;;;3.41;100.00
19457;BME280;9867;48.094;11.478;2023-02-12T01:56:33;97023.00;;;3.52;100.00
19457;BME280;9867;48.094;11.478;2023-02-12T01:59:00;97015.59;;;3.36;100.00
19457;BME280;9867;48.094;11.478;2023-02-12T02:01:31;97025.34;;;3.42;100.00
19457;BME280;9867;48.094;11.478;2023-02-12T02:04:01;97024.44;;;3.43;100.00
19457;BME280;9867;48.094;11.478;2023-02-12T02:06:32;97015.91;;;3.44;100.00
19457;BME280;9867;48.094;11.478;2023-02-12T02:09:00;97022.00;;;3.41;100.00
19457;BME280;9867;48.094;11.478;2023-02-12T02:11:28;97018.84;;;3.38;100.00
19457;BME280;9867;48.094;11.478;2023-02-12T02:14:12;97015.72;;;3.34;100.00
19457;BME280;9867;48.094;11.478;2023-02-12T02:17:27;97014.19;;;3.45;100.00
19457;BME280;9867;48.094;11.478;2023-02-12T02:20:26;97005.44;;;3.49;100.00
19457;BME280;9867;48.094;11.478;2023-02-12T02:23:16;97010.03;;;3.43;100.00
19457;BME280;9867;48.094;11.478;2023-02-12T02:26:01;97004.44;;;3.51;100.00
19457;BME280;9867;48.094;11.478;2023-02-12T02:28:58;97005.19;;;3.64;100.00
19457;BME280;9867;48.094;11.478;2023-02-12T02:31:29;97007.72;;;3.64;100.00
19457;BME280;9867;48.094;11.478;2023-02-12T02:34:02;97012.69;;;3.66;100.00
19457;BME280;9867;48.094;11.478;2023-02-12T02:36:36;97002.25;;;3.58;100.00
19457;BME280;9867;48.094;11.478;2023-02-12T02:39:27;97005.19;;;3.64;100.00
19457;BME280;9867;48.094;11.478;2023-02-12T02:41:58;97009.41;;;3.53;100.00
19457;BME280;9867;48.094;11.478;2023-02-12T02:44:41;97009.28;;;3.54;100.00
19457;BME280;9867;48.094;11.478;2023-02-12T02:47:12;97002.59;;;3.53;100.00
19457;BME280;9867;48.094;11.478;2023-02-12T02:49:44;97008.94;;;3.59;100.00
19457;BME280;9867;48.094;11.478;2023-02-12T02:52:16;97008.59;;;3.52;100.00
19457;BME280;9867;48.094;11.478;2023-02-12T02:54:46;96994.78;;;3.43;100.00
19457;BME280;9867;48.094;11.478;2023-02-12T02:57:16;96990.63;;;3.42;100.00
19457;BME280;9867;48.094;11.478;2023-02-12T02:59:47;96989.72;;;3.43;100.00
19457;BME280;9867;48.094;11.478;2023-02-12T03:02:20;96991.06;;;3.36;100.00
19457;BME280;9867;48.094;11.478;2023-02-12T03:04:52;96989.00;;;3.41;100.00
19457;BME280;9867;48.094;11.478;2023-02-12T03:07:25;96990.00;;;3.52;100.00
19457;BME280;9867;48.094;11.478;2023-02-12T03:09:56;96997.66;;;3.63;100.00
19457;BME280;9867;48.094;11.478;2023-02-12T03:12:30;96986.38;;;3.43;100.00
19457;BME280;9867;48.094;11.478;2023-02-12T03:15:02;96989.66;;;3.56;100.00
19457;BME280;9867;48.094;11.478;2023-02-12T03:17:33;96996.16;;;3.60;100.00
19457;BME280;9867;48.094;11.478;2023-02-12T03:20:04;96999.09;;;3.67;100.00
19457;BME280;9867;48.094;11.478;2023-02-12T03:22:35;97008.84;;;3.60;100.00
19457;BME280;9867;48.094;11.478;2023-02-12T03:25:03;97011.00;;;3.54;100.00
19457;BME280;9867;48.094;11.478;2023-02-12T03:27:37;96993.25;;;3.17;100.00
19457;BME280;9867;48.094;11.478;2023-02-12T03:30:06;97007.53;;;3.18;100.00
19457;BME280;9867;48.094;11.478;2023-02-12T03:32:40;97019.72;;;3.26;100.00
19457;BME280;9867;48.094;11.478;2023-02-12T03:35:15;97018.59;;;3.30;100.00
19457;BME280;9867;48.094;11.478;2023-02-12T03:37:50;97028.78;;;3.04;100.00
19457;BME280;9867;48.094;11.478;2023-02-12T03:40:24;97025.31;;;3.05;100.00
19457;BME280;9867;48.094;11.478;2023-02-12T03:42:57;97020.84;;;3.09;100.00
19457;BME280;9867;48.094;11.478;2023-02-12T03:45:35;97016.06;;;3.17;100.00
19457;BME280;9867;48.094;11.478;2023-02-12T03:48:08;97016.38;;;3.25;100.00
19457;BME280;9867;48.094;11.478;2023-02-12T03:50:39;97014.69;;;3.37;100.00
19457;BME280;9867;48.094;11.478;2023-02-12T03:53:09;97019.03;;;3.48;100.00
19457;BME280;9867;48.094;11.478;2023-02-12T03:55:38;97008.59;;;3.52;100.00
19457;BME280;9867;48.094;11.478;2023-02-12T03:58:08;97020.34;;;3.53;100.00
19457;BME280;9867;48.094;11.478;2023-02-12T04:00:37;97010.53;;;3.49;100.00
19457;BME280;9867;48.094;11.478;2023-02-12T04:03:05;97018.13;;;3.49;100.00
19457;BME280;9867;48.094;11.478;2023-02-12T04:05:32;97014.28;;;3.43;100.00
19457;BME280;9867;48.094;11.478;2023-02-12T04:07:59;97016.72;;;3.32;100.00
19457;BME280;9867;48.094;11.478;2023-02-12T04:10:30;97026.56;;;3.36;100.00
19457;BME280;9867;48.094;11.478;2023-02-12T04:13:05;97025.25;;;3.31;100.00
19457;BME280;9867;48.094;11.478;2023-02-12T04:15:42;97027.94;;;3.17;100.00
19457;BME280;9867;48.094;11.478;2023-02-12T04:18:18;97041.13;;;3.22;100.00
19457;BME280;9867;48.094;11.478;2023-02-12T04:20:52;97037.34;;;3.27;100.00
19457;BME280;9867;48.094;11.478;2023-02-12T04:23:39;97038.59;;;3.22;100.00
19457;BME280;9867;48.094;11.478;2023-02-12T04:26:12;97034.00;;;3.27;100.00
19457;BME280;9867;48.094;11.478;2023-02-12T04:28:46;97035.84;;;3.25;100.00
19457;BME280;9867;48.094;11.478;2023-02-12T04:31:22;97024.47;;;3.18;100.00
19457;BME280;9867;48.094;11.478;2023-02-12T04:33:59;97029.75;;;3.27;100.00
19457;BME280;9867;48.094;11.478;2023-02-12T04:36:33;97042.81;;;3.34;100.00
19457;BME280;9867;48.094;11.478;2023-02-12T04:39:02;97049.09;;;3.41;100.00
19457;BME280;9867;48.094;11.478;2023-02-12T04:41:32;97044.63;;;3.32;100.00
19457;BME280;9867;48.094;11.478;2023-02-12T04:44:12;97044.88;;;3.29;100.00
19457;BME280;9867;48.094;11.478;2023-02-12T04:46:39;97049.19;;;3.39;100.00
19457;BME280;9867;48.094;11.478;2023-02-12T04:49:08;97054.47;;;3.36;100.00
19457;BME280;9867;48.094;11.478;2023-02-12T04:51:38;97049.50;;;3.35;100.00
19457;BME280;9867;48.094;11.478;2023-02-12T04:54:05;97051.66;;;3.28;100.00
19457;BME280;9867;48.094;11.478;2023-02-12T04:56:31;97050.84;;;3.28;100.00
19457;BME280;9867;48.094;11.478;2023-02-12T04:58:58;97050.16;;;3.26;100.00
19457;BME280;9867;48.094;11.478;2023-02-12T05:01:24;97056.94;;;2.87;100.00
19457;BME280;9867;48.094;11.478;2023-02-12T05:03:51;97051.38;;;2.69;100.00
19457;BME280;9867;48.094;11.478;2023-02-12T05:06:18;97052.19;;;2.70;100.00
19457;BME280;9867;48.094;11.478;2023-02-12T05:08:45;97049.66;;;2.95;100.00
19457;BME280;9867;48.094;11.478;2023-02-12T05:11:11;97049.03;;;2.92;100.00
19457;BME280;9867;48.094;11.478;2023-02-12T05:13:37;97044.50;;;2.97;100.00
19457;BME280;9867;48.094;11.478;2023-02-12T05:16:05;97052.69;;;3.00;100.00
19457;BME280;9867;48.094;11.478;2023-02-12T05:18:33;97057.78;;;3.00;100.00
19457;BME280;9867;48.094;11.478;2023-02-12T05:21:02;97048.53;;;2.87;100.00
19457;BME280;9867;48.094;11.478;2023-02-12T05:23:31;97072.56;;;2.94;100.00
19457;BME280;9867;48.094;11.478;2023-02-12T05:25:59;97065.16;;;2.91;100.00
19457;BME280;9867;48.094;11.478;2023-02-12T05:28:25;97063.94;;;2.96;100.00
19457;BME280;9867;48.094;11.478;2023-02-12T05:30:52;97059.78;;;3.08;100.00
19457;BME280;9867;48.094;11.478;2023-02-12T05:33:19;97064.38;;;3.03;100.00
19457;BME280;9867;48.094;11.478;2023-02-12T05:35:45;97067.72;;;3.03;100.00
19457;BME280;9867;48.094;11.478;2023-02-12T05:38:12;97067.00;;;3.01;100.00
19457;BME280;9867;48.094;11.478;2023-02-12T05:40:39;97068.81;;;2.99;100.00
19457;BME280;9867;48.094;11.478;2023-02-12T05:43:07;97074.50;;;3.03;100.00
19457;BME280;9867;48.094;11.478;2023-02-12T05:45:34;97075.19;;;2.92;100.00
19457;BME280;9867;48.094;11.478;2023-02-12T05:48:00;97076.13;;;2.79;100.00
19457;BME280;9867;48.094;11.478;2023-02-12T05:50:27;97075.38;;;2.64;100.00
19457;BME280;9867;48.094;11.478;2023-02-12T05:52:58;97073.47;;;2.67;100.00
19457;BME280;9867;48.094;11.478;2023-02-12T05:55:25;97071.34;;;2.74;100.00
19457;BME280;9867;48.094;11.478;2023-02-12T05:57:57;97073.69;;;2.77;100.00
19457;BME280;9867;48.094;11.478;2023-02-12T06:00:24;97065.16;;;2.78;100.00
19457;BME280;9867;48.094;11.478;2023-02-12T06:02:51;97068.31;;;2.82;100.00
19457;BME280;9867;48.094;11.478;2023-02-12T06:05:17;97056.97;;;2.74;100.00
19457;BME280;9867;48.094;11.478;2023-02-12T06:07:44;97070.72;;;2.70;100.00
19457;BME280;9867;48.094;11.478;2023-02-12T06:10:10;97064.38;;;2.78;100.00
19457;BME280;9867;48.094;11.478;2023-02-12T06:12:37;97072.25;;;2.86;100.00
19457;BME280;9867;48.094;11.478;2023-02-12T06:15:04;97081.19;;;2.91;100.00
19457;BME280;9867;48.094;11.478;2023-02-12T06:17:32;97086.44;;;2.88;100.00
19457;BME280;9867;48.094;11.478;2023-02-12T06:19:59;97080.28;;;2.92;100.00
19457;BME280;9867;48.094;11.478;2023-02-12T06:22:26;97085.44;;;2.91;100.00
19457;BME280;9867;48.094;11.478;2023-02-12T06:24:53;97093.25;;;2.88;100.00
19457;BME280;9867;48.094;11.478;2023-02-12T06:27:19;97099.94;;;2.89;100.00
19457;BME280;9867;48.094;11.478;2023-02-12T06:29:45;97088.69;;;2.93;100.00
19457;BME280;9867;48.094;11.478;2023-02-12T06:32:13;97098.63;;;2.96;100.00
19457;BME280;9867;48.094;11.478;2023-02-12T06:34:40;97101.59;;;3.02;100.00
19457;BME280;9867;48.094;11.478;2023-02-12T06:37:06;97092.06;;;3.06;100.00
19457;BME280;9867;48.094;11.478;2023-02-12T06:39:33;97096.91;;;3.22;100.00
19457;BME280;9867;48.094;11.478;2023-02-12T06:41:59;97106.03;;;3.24;100.00
19457;BME280;9867;48.094;11.478;2023-02-12T06:44:26;97105.22;;;3.24;100.00
19457;BME280;9867;48.094;11.478;2023-02-12T06:46:53;97104.13;;;3.28;100.00
19457;BME280;9867;48.094;11.478;2023-02-12T06:49:20;97103.19;;;3.29;100.00
19457;BME280;9867;48.094;11.478;2023-02-12T06:51:46;97117.91;;;3.24;100.00
19457;BME280;9867;48.094;11.478;2023-02-12T06:54:15;97112.31;;;3.19;100.00
19457;BME280;9867;48.094;11.478;2023-02-12T06:56:42;97105.53;;;3.19;100.00
19457;BME280;9867;48.094;11.478;2023-02-12T06:59:12;97111.19;;;3.35;100.00
19457;BME280;9867;48.094;11.478;2023-02-12T07:01:39;97114.13;;;3.42;100.00
19457;BME280;9867;48.094;11.478;2023-02-12T07:04:05;97117.47;;;3.42;100.00
19457;BME280;9867;48.094;11.478;2023-02-12T07:06:34;97114.03;;;3.43;100.00
19457;BME280;9867;48.094;11.478;2023-02-12T07:09:02;97109.38;;;3.50;100.00
19457;BME280;9867;48.094;11.478;2023-02-12T07:11:31;97103.47;;;3.50;100.00
19457;BME280;9867;48.094;11.478;2023-02-12T07:14:00;97114.09;;;3.55;100.00
19457;BME280;9867;48.094;11.478;2023-02-12T07:16:27;97110.06;;;3.52;100.00
19457;BME280;9867;48.094;11.478;2023-02-12T07:18:53;97111.91;;;3.50;100.00
19457;BME280;9867;48.094;11.478;2023-02-12T07:21:20;97123.13;;;3.59;100.00
19457;BME280;9867;48.094;11.478;2023-02-12T07:23:48;97114.81;;;3.69;100.00
19457;BME280;9867;48.094;11.478;2023-02-12T07:26:18;97116.59;;;3.80;100.00
19457;BME280;9867;48.094;11.478;2023-02-12T07:28:44;97126.75;;;3.80;100.00
19457;BME280;9867;48.094;11.478;2023-02-12T07:31:12;97118.88;;;3.72;100.00
19457;BME280;9867;48.094;11.478;2023-02-12T07:33:39;97117.13;;;3.72;100.00
19457;BME280;9867;48.094;11.478;2023-02-12T07:36:08;97113.78;;;3.72;100.00
19457;BME280;9867;48.094;11.478;2023-02-12T07:38:35;97118.75;;;3.73;100.00
19457;BME280;9867;48.094;11.478;2023-02-12T07:41:15;97116.81;;;3.77;100.00
19457;BME280;9867;48.094;11.478;2023-02-12T07:43:44;97115.50;;;3.71;100.00
19457;BME280;9867;48.094;11.478;2023-02-12T07:46:12;97104.72;;;3.81;100.00
19457;BME280;9867;48.094;11.478;2023-02-12T07:48:39;97114.94;;;3.92;100.00
19457;BME280;9867;48.094;11.478;2023-02-12T07:51:07;97099.81;;;3.90;100.00
19457;BME280;9867;48.094;11.478;2023-02-12T07:53:35;97106.94;;;4.22;100.00
19457;BME280;9867;48.094;11.478;2023-02-12T07:56:12;97095.34;;;4.18;100.00
19457;BME280;9867;48.094;11.478;2023-02-12T07:58:42;97086.97;;;4.04;100.00
19457;BME280;9867;48.094;11.478;2023-02-12T08:01:14;97095.94;;;4.21;100.00
19457;BME280;9867;48.094;11.478;2023-02-12T08:03:42;97098.53;;;4.32;100.00
19457;BME280;9867;48.094;11.478;2023-02-12T08:06:10;97103.19;;;4.38;100.00
19457;BME280;9867;48.094;11.478;2023-02-12T08:08:36;97097.19;;;6.08;100.00
19457;BME280;9867;48.094;11.478;2023-02-12T08:11:04;97100.31;;;6.12;100.00
19457;BME280;9867;48.094;11.478;2023-02-12T08:13:35;97097.16;;;7.14;100.00
19457;BME280;9867;48.094;11.478;2023-02-12T08:16:04;97090.06;;;7.17;100.00
19457;BME280;9867;48.094;11.478;2023-02-12T08:18:32;97092.56;;;6.66;100.00
19457;BME280;9867;48.094;11.478;2023-02-12T08:21:03;97089.69;;;7.22;100.00
19457;BME280;9867;48.094;11.478;2023-02-12T08:23:30;97093.84;;;7.53;100.00
19457;BME280;9867;48.094;11.478;2023-02-12T08:26:08;97095.59;;;8.12;100.00
19457;BME280;9867;48.094;11.478;2023-02-12T08:28:37;97092.19;;;7.83;100.00
19457;BME280;9867;48.094;11.478;2023-02-12T08:31:09;97093.38;;;7.08;100.00
19457;BME280;9867;48.094;11.478;2023-02-12T08:33:36;97092.06;;;6.52;100.00
19457;BME280;9867;48.094;11.478;2023-02-12T08:36:04;97099.34;;;6.98;100.00
19457;BME280;9867;48.094;11.478;2023-02-12T08:38:32;97096.84;;;7.68;100.00
19457;BME280;9867;48.094;11.478;2023-02-12T08:41:02;97099.16;;;7.81;100.00
19457;BME280;9867;48.094;11.478;2023-02-12T08:43:30;97095.63;;;7.63;100.00
19457;BME280;9867;48.094;11.478;2023-02-12T08:46:01;97091.03;;;8.16;100.00
19457;BME280;9867;48.094;11.478;2023-02-12T08:48:28;97090.25;;;7.66;100.00
19457;BME280;9867;48.094;11.478;2023-02-12T08:50:54;97096.38;;;8.03;100.00
19457;BME280;9867;48.094;11.478;2023-02-12T08:53:21;97088.78;;;8.32;100.00
19457;BME280;9867;48.094;11.478;2023-02-12T08:55:47;97092.41;;;8.20;100.00
19457;BME280;9867;48.094;11.478;2023-02-12T08:58:19;97097.34;;;8.02;100.00
19457;BME280;9867;48.094;11.478;2023-02-12T09:00:45;97092.13;;;8.13;100.00
19457;BME280;9867;48.094;11.478;2023-02-12T09:03:12;97085.41;;;8.51;100.00
19457;BME280;9867;48.094;11.478;2023-02-12T09:05:42;97081.34;;;8.97;100.00
19457;BME280;9867;48.094;11.478;2023-02-12T09:08:08;97092.03;;;8.44;100.00
19457;BME280;9867;48.094;11.478;2023-02-12T09:10:38;97105.50;;;7.86;100.00
19457;BME280;9867;48.094;11.478;2023-02-12T09:13:05;97097.13;;;7.04;100.00
19457;BME280;9867;48.094;11.478;2023-02-12T09:15:35;97091.63;;;6.67;100.00
19457;BME280;9867;48.094;11.478;2023-02-12T09:18:02;97083.28;;;6.44;100.00
19457;BME280;9867;48.094;11.478;2023-02-12T09:20:29;97087.91;;;6.71;100.00
19457;BME280;9867;48.094;11.478;2023-02-12T09:22:57;97090.28;;;6.84;100.00
19457;BME280;9867;48.094;11.478;2023-02-12T09:25:25;97087.06;;;7.12;100.00
19457;BME280;9867;48.094;11.478;2023-02-12T09:27:51;97096.59;;;7.31;100.00
19457;BME280;9867;48.094;11.478;2023-02-12T09:30:18;97092.81;;;7.35;100.00
19457;BME280;9867;48.094;11.478;2023-02-12T09:32:44;97102.03;;;7.57;100.00
19457;BME280;9867;48.094;11.478;2023-02-12T09:35:11;97098.03;;;7.55;100.00
19457;BME280;9867;48.094;11.478;2023-02-12T09:37:38;97092.13;;;7.64;100.00
19457;BME280;9867;48.094;11.478;2023-02-12T09:40:06;97104.72;;;7.46;100.00
19457;BME280;9867;48.094;11.478;2023-02-12T09:42:49;97092.13;;;7.33;100.00
19457;BME280;9867;48.094;11.478;2023-02-12T09:45:20;97096.25;;;7.45;100.00
19457;BME280;9867;48.094;11.478;2023-02-12T09:47:52;97098.66;;;7.47;100.00
19457;BME280;9867;48.094;11.478;2023-02-12T09:50:41;97094.94;;;7.61;100.00
19457;BME280;9867;48.094;11.478;2023-02-12T09:53:13;97098.34;;;7.80;100.00
19457;BME280;9867;48.094;11.478;2023-02-12T09:55:42;97101.06;;;7.79;100.00
19457;BME280;9867;48.094;11.478;2023-02-12T09:58:13;97110.53;;;7.98;100.00
19457;BME280;9867;48.094;11.478;2023-02-12T10:00:41;97107.19;;;8.16;100.00
19457;BME280;9867;48.094;11.478;2023-02-12T10:03:13;97095.56;;;7.93;100.00
19457;BME280;9867;48.094;11.478;2023-02-12T10:05:43;97096.41;;;7.53;100.00
19457;BME280;9867;48.094;11.478;2023-02-12T10:08:26;97099.59;;;7.46;100.00
19457;BME280;9867;48.094;11.478;2023-02-12T10:11:12;97098.47;;;7.29;100.00
19457;BME280;9867;48.094;11.478;2023-02-12T10:13:45;97094.94;;;7.00;100.00
19457;BME280;9867;48.094;11.478;2023-02-12T10:16:20;97097.00;;;7.06;100.00
19457;BME280;9867;48.094;11.478;2023-02-12T10:19:03;97098.88;;;7.04;100.00
19457;BME280;9867;48.094;11.478;2023-02-12T10:21:42;97101.78;;;6.99;100.00
19457;BME280;9867;48.094;11.478;2023-02-12T10:24:24;97097.91;;;7.26;100.00
19457;BME280;9867;48.094;11.478;2023-02-12T10:26:57;97098.19;;;7.32;100.00
19457;BME280;9867;48.094;11.478;2023-02-12T10:29:29;97096.53;;;7.52;100.00
19457;BME280;9867;48.094;11.478;2023-02-12T10:32:01;97080.69;;;7.58;100.00
19457;BME280;9867;48.094;11.478;2023-02-12T10:34:34;97091.69;;;7.59;100.00
19457;BME280;9867;48.094;11.478;2023-02-12T10:37:04;97093.50;;;7.68;100.00
19457;BME280;9867;48.094;11.478;2023-02-12T10:39:40;97092.22;;;7.93;100.00
19457;BME280;9867;48.094;11.478;2023-02-12T10:42:11;97097.91;;;7.66;100.00
19457;BME280;9867;48.094;11.478;2023-02-12T10:44:41;97091.44;;;7.62;100.00
19457;BME280;9867;48.094;11.478;2023-02-12T10:47:14;97099.28;;;7.70;100.00
19457;BME280;9867;48.094;11.478;2023-02-12T10:49:43;97098.53;;;7.88;100.00
19457;BME280;9867;48.094;11.478;2023-02-12T10:52:16;97095.00;;;7.80;100.00
19457;BME280;9867;48.094;11.478;2023-02-12T10:54:47;97088.38;;;7.68;100.00
19457;BME280;9867;48.094;11.478;2023-02-12T10:57:18;97098.53;;;7.88;100.00
19457;BME280;9867;48.094;11.478;2023-02-12T10:59:47;97086.47;;;8.19;100.00
19457;BME280;9867;48.094;11.478;2023-02-12T11:02:18;97086.44;;;8.00;100.00
19457;BME280;9867;48.094;11.478;2023-02-12T11:04:45;97089.28;;;7.97;100.00
19457;BME280;9867;48.094;11.478;2023-02-12T11:07:12;97088.97;;;7.91;100.00
19457;BME280;9867;48.094;11.478;2023-02-12T11:09:41;97080.22;;;7.83;100.00
19457;BME280;9867;48.094;11.478;2023-02-12T11:12:27;97077.53;;;7.85;100.00
19457;BME280;9867;48.094;11.478;2023-02-12T11:14:57;97073.69;;;8.19;100.00
19457;BME280;9867;48.094;11.478;2023-02-12T11:17:29;97080.44;;;8.59;100.00
19457;BME280;9867;48.094;11.478;2023-02-12T11:20:18;97073.69;;;8.77;100.00
19457;BME280;9867;48.094;11.478;2023-02-12T11:22:53;97070.06;;;8.70;100.00
19457;BME280;9867;48.094;11.478;2023-02-12T11:25:21;97075.06;;;8.72;100.00
19457;BME280;9867;48.094;11.478;2023-02-12T11:28:01;97075.19;;;8.51;100.00
19457;BME280;9867;48.094;11.478;2023-02-12T11:30:29;97073.31;;;8.72;100.00
19457;BME280;9867;48.094;11.478;2023-02-12T11:33:14;97064.69;;;8.54;100.00
19457;BME280;9867;48.094;11.478;2023-02-12T11:35:48;97077.75;;;8.61;100.00
19457;BME280;9867;48.094;11.478;2023-02-12T11:38:25;97068.44;;;8.79;100.00
19457;BME280;9867;48.094;11.478;2023-02-12T11:40:56;97059.72;;;8.72;100.00
19457;BME280;9867;48.094;11.478;2023-02-12T11:43:24;97069.06;;;9.00;100.00
19457;BME280;9867;48.094;11.478;2023-02-12T11:45:53;97061.09;;;9.03;100.00
19457;BME280;9867;48.094;11.478;2023-02-12T11:48:24;97058.00;;;9.09;100.00
19457;BME280;9867;48.094;11.478;2023-02-12T11:50:55;97063.19;;;9.27;100.00
19457;BME280;9867;48.094;11.478;2023-02-12T11:53:25;97062.16;;;9.47;100.00
19457;BME280;9867;48.094;11.478;2023-02-12T11:55:57;97066.63;;;8.99;100.00
19457;BME280;9867;48.094;11.478;2023-02-12T11:58:26;97053.22;;;9.24;100.00
19457;BME280;9867;48.094;11.478;2023-02-12T12:00:58;97053.16;;;9.43;100.00
19457;BME280;9867;48.094;11.478;2023-02-12T12:03:34;97059.03;;;9.53;100.00
19457;BME280;9867;48.094;11.478;2023-02-12T12:06:09;97047.44;;;9.22;100.00
19457;BME280;9867;48.094;11.478;2023-02-12T12:08:48;97058.31;;;8.97;100.00
19457;BME280;9867;48.094;11.478;2023-02-12T12:11:19;97054.59;;;8.62;100.00
19457;BME280;9867;48.094;11.478;2023-02-12T12:13:51;97058.78;;;8.34;100.00
19457;BME280;9867;48.094;11.478;2023-02-12T12:16:24;97071.56;;;8.44;100.00
19457;BME280;9867;48.094;11.478;2023-02-12T12:19:15;97055.09;;;8.85;100.00
19457;BME280;9867;48.094;11.478;2023-02-12T12:22:04;97044.53;;;8.98;100.00
19457;BME280;9867;48.094;11.478;2023-02-12T12:24:39;97051.25;;;8.42;100.00
19457;BME280;9867;48.094;11.478;2023-02-12T12:27:13;97047.03;;;8.70;100.00
19457;BME280;9867;48.094;11.478;2023-02-12T12:30:17;97036.75;;;8.89;100.00
19457;BME280;9867;48.094;11.478;2023-02-12T12:32:46;97040.53;;;8.95;100.00
19457;BME280;9867;48.094;11.478;2023-02-12T12:35:17;97041.81;;;9.09;100.00
19457;BME280;9867;48.094;11.478;2023-02-12T12:37:48;97029.34;;;9.23;100.00
19457;BME280;9867;48.094;11.478;2023-02-12T12:40:36;97037.47;;;9.46;100.00
19457;BME280;9867;48.094;11.478;2023-02-12T12:43:11;97022.78;;;9.48;100.00
19457;BME280;9867;48.094;11.478;2023-02-12T12:46:00;97029.88;;;9.82;100.00
19457;BME280;9867;48.094;11.478;2023-02-12T12:48:48;97033.63;;;10.05;100.00
19457;BME280;9867;48.094;11.478;2023-02-12T12:51:27;97010.13;;;10.10;100.00
19457;BME280;9867;48.094;11.478;2023-02-12T12:54:10;97028.00;;;10.19;100.00
19457;BME280;9867;48.094;11.478;2023-02-12T12:56:46;97024.28;;;10.14;100.00
19457;BME280;9867;48.094;11.478;2023-02-12T13:02:59;97024.47;;;10.03;100.00
19457;BME280;9867;48.094;11.478;2023-02-12T13:05:53;97015.03;;;10.03;100.00
19457;BME280;9867;48.094;11.478;2023-02-12T13:08:37;97018.88;;;10.35;100.00
19457;BME280;9867;48.094;11.478;2023-02-12T13:11:10;97016.31;;;9.72;100.00
19457;BME280;9867;48.094;11.478;2023-02-12T13:13:43;97018.44;;;9.76;100.00
19457;BME280;9867;48.094;11.478;2023-02-12T13:16:17;96973.09;;;9.95;100.00
19457;BME280;9867;48.094;11.478;2023-02-12T13:18:53;97010.41;;;10.60;100.00
19457;BME280;9867;48.094;11.478;2023-02-12T13:21:33;97010.94;;;10.10;100.00
19457;BME280;9867;48.094;11.478;2023-02-12T13:24:10;97015.44;;;10.16;100.00